Gamma, Missouri
Current Conditions -  °F | °C
As of 10:15 AM on Thursday 18 Dec 2014 (Local Time) from KFYG Reporting Station
Light Snow Light Snow  
Wind Chill: 32°   Ceiling: Unl
Heat Index: 32°   Visibility: 1.2mi
Dew Point: 28°   Wind: 3mph
Humidity: 87%   Direction: 80°E
Pressure: 30.29"   Gusts: NA
Location:  38.9997°N, 91.3365°W
Report Text: KFYG 181615Z AUTO 08003KT 1 1/4SM -SN CLR 00/M02 A3029 RMK AO2 P0001
Loading
Personal Weather Stations






























Interactive Weather Map New forecast layout! Learn more

10-Day Weather Forecast

Advertisements
Track Severe Weather on mobile